Time;durP1;ratioP1;P1;durP2;ratioP2;P2;SDS_P1;SDS_P2;PMS_P1;PMS_P2;Temp;Humidity;BMP_temperature;BMP_pressure;BME280_temperature;BME280_humidity;BME280_pressure;Samples;Min_cycle;Max_cycle;Signal;HPM_P1;HPM_P2
2022/05/09 00:01:21;;;;;;;4.97;3.35;;;20.00;96.70;;;;;;5059287;28;20497;-81
2022/05/09 00:03:50;;;;;;;5.82;3.35;;;19.90;96.70;;;;;;5049208;28;20052;-80
2022/05/09 00:06:19;;;;;;;5.28;3.33;;;20.00;96.70;;;;;;5051837;28;20673;-80
2022/05/09 00:08:49;;;;;;;5.25;3.70;;;20.00;96.70;;;;;;5054560;28;20067;-80
2022/05/09 00:11:17;;;;;;;4.70;3.80;;;19.90;96.70;;;;;;5057011;28;20088;-80
2022/05/09 00:13:45;;;;;;;4.55;3.45;;;19.90;96.70;;;;;;5062252;28;20053;-80
2022/05/09 00:16:13;;;;;;;8.15;3.53;;;19.90;96.70;;;;;;5069357;28;20097;-80
2022/05/09 00:18:41;;;;;;;3.95;3.55;;;19.90;96.70;;;;;;5048819;28;20557;-79
2022/05/09 00:21:10;;;;;;;6.05;3.70;;;19.90;96.70;;;;;;5045842;28;20072;-80
2022/05/09 00:23:40;;;;;;;5.68;3.42;;;19.90;96.70;;;;;;5066345;28;20202;-81
2022/05/09 00:26:07;;;;;;;5.78;3.95;;;19.90;96.70;;;;;;5066262;28;20064;-81
2022/05/09 00:28:38;;;;;;;3.75;3.30;;;19.80;96.70;;;;;;5065858;28;20064;-81
2022/05/09 00:31:06;;;;;;;6.10;3.75;;;19.80;96.70;;;;;;5067184;28;20037;-81
2022/05/09 00:33:34;;;;;;;6.05;3.63;;;19.70;96.70;;;;;;5068180;28;20044;-81
2022/05/09 00:36:02;;;;;;;4.78;3.55;;;19.50;96.70;;;;;;5065689;28;20494;-81
2022/05/09 00:38:30;;;;;;;4.65;3.53;;;19.30;96.70;;;;;;5066317;28;20138;-81
2022/05/09 00:43:48;;;;;;;3.83;3.45;;;19.00;96.70;;;;;;5061624;28;20052;-81
2022/05/09 00:46:16;;;;;;;4.35;3.33;;;18.80;96.70;;;;;;5045202;28;20056;-81
2022/05/09 00:48:44;;;;;;;5.85;3.90;;;18.80;96.70;;;;;;5058791;28;20124;-81
2022/05/09 00:51:18;;;;;;;5.43;3.58;;;18.80;96.70;;;;;;5067166;28;20044;-81
2022/05/09 00:53:47;;;;;;;4.05;3.13;;;18.80;96.70;;;;;;5057004;28;20047;-80
2022/05/09 00:56:21;;;;;;;4.35;3.40;;;18.80;96.70;;;;;;5059822;28;20048;-81
2022/05/09 00:58:55;;;;;;;5.40;3.97;;;18.80;96.70;;;;;;5051430;28;20056;-81
2022/05/09 01:01:23;;;;;;;4.32;3.30;;;18.90;96.70;;;;;;5063591;28;20048;-81
2022/05/09 01:03:54;;;;;;;5.85;3.28;;;18.70;96.70;;;;;;5065745;28;20076;-81
2022/05/09 01:06:24;;;;;;;5.50;3.13;;;18.70;96.70;;;;;;5057933;28;20032;-81
2022/05/09 01:08:52;;;;;;;4.20;3.20;;;18.70;96.70;;;;;;5056803;28;20044;-80
2022/05/09 01:11:23;;;;;;;4.78;3.00;;;18.70;96.70;;;;;;5063171;28;20084;-80
2022/05/09 01:13:57;;;;;;;6.55;3.83;;;18.60;96.70;;;;;;5065276;28;20044;-80
2022/05/09 01:16:26;;;;;;;5.93;3.42;;;18.60;96.70;;;;;;5058206;28;20072;-80
2022/05/09 01:18:56;;;;;;;3.72;3.20;;;18.60;96.70;;;;;;5065678;28;20090;-80
2022/05/09 01:21:34;;;;;;;4.18;3.75;;;18.60;96.70;;;;;;5065924;28;20128;-81
2022/05/09 01:24:04;;;;;;;5.57;3.17;;;18.60;96.70;;;;;;5064942;28;20048;-81
2022/05/09 01:26:33;;;;;;;5.05;3.25;;;18.50;96.70;;;;;;5060952;28;20091;-80
2022/05/09 01:29:05;;;;;;;4.68;3.35;;;18.50;96.70;;;;;;5064255;28;20109;-81
2022/05/09 01:31:36;;;;;;;4.35;3.40;;;18.60;96.70;;;;;;5063739;28;20524;-81
2022/05/09 01:34:05;;;;;;;5.03;3.40;;;18.50;96.70;;;;;;5066245;28;20048;-81
2022/05/09 01:36:38;;;;;;;5.10;3.60;;;18.50;96.70;;;;;;5065766;28;20048;-81
2022/05/09 01:39:10;;;;;;;6.47;3.53;;;18.50;96.70;;;;;;5059166;28;20110;-81
2022/05/09 01:41:41;;;;;;;4.32;3.10;;;18.50;96.70;;;;;;5058274;28;20041;-81
2022/05/09 01:44:10;;;;;;;6.15;3.22;;;18.50;96.70;;;;;;5066228;28;20712;-81
2022/05/09 01:49:29;;;;;;;5.20;3.28;;;18.60;96.70;;;;;;5045651;28;20140;-80
2022/05/09 01:49:31;;;;;;;4.85;3.17;;;18.50;96.70;;;;;;5050187;28;20509;-80
2022/05/09 01:52:03;;;;;;;3.78;3.42;;;18.60;96.70;;;;;;5061174;28;20044;-81
2022/05/09 01:54:31;;;;;;;5.68;3.60;;;18.50;96.70;;;;;;5063985;28;20052;-81
2022/05/09 01:56:59;;;;;;;4.35;3.60;;;18.50;96.70;;;;;;5065093;28;20440;-81
2022/05/09 01:59:29;;;;;;;4.32;3.83;;;18.50;96.70;;;;;;5049591;28;20059;-81
2022/05/09 02:01:59;;;;;;;5.20;3.83;;;18.50;96.70;;;;;;5057941;28;20043;-81
2022/05/09 02:04:28;;;;;;;4.88;3.40;;;18.50;96.70;;;;;;5064319;28;20054;-81
2022/05/09 02:06:57;;;;;;;5.32;4.10;;;18.40;96.70;;;;;;5056239;28;20052;-80
2022/05/09 02:09:27;;;;;;;7.07;4.03;;;18.30;96.70;;;;;;5054952;28;20048;-82
2022/05/09 02:11:55;;;;;;;4.95;3.92;;;18.20;96.70;;;;;;5046406;28;20135;-81
2022/05/09 02:14:23;;;;;;;5.10;3.90;;;18.20;96.70;;;;;;5060243;28;20045;-81
2022/05/09 02:16:51;;;;;;;4.82;3.72;;;18.30;96.70;;;;;;5066119;28;20136;-82
2022/05/09 02:19:19;;;;;;;4.45;4.00;;;18.30;96.70;;;;;;5061516;28;20044;-81
2022/05/09 02:21:47;;;;;;;6.25;4.10;;;18.20;96.70;;;;;;5057010;28;20041;-81
2022/05/09 02:24:15;;;;;;;5.20;4.30;;;18.20;96.70;;;;;;5060219;28;20052;-81
2022/05/09 02:26:44;;;;;;;5.72;4.13;;;18.10;96.70;;;;;;5065538;28;20095;-81
2022/05/09 02:29:13;;;;;;;6.85;4.28;;;18.10;96.70;;;;;;5044638;28;20044;-81
2022/05/09 02:31:41;;;;;;;4.60;4.05;;;18.00;96.70;;;;;;5053637;28;20056;-80
2022/05/09 02:34:09;;;;;;;6.75;3.63;;;18.10;96.70;;;;;;5047063;28;20490;-80
2022/05/09 02:36:37;;;;;;;8.25;3.97;;;18.10;96.70;;;;;;5066775;28;20501;-82
2022/05/09 02:39:05;;;;;;;5.65;4.22;;;18.10;96.70;;;;;;5044650;28;20086;-81
2022/05/09 02:41:34;;;;;;;7.45;4.20;;;18.10;96.70;;;;;;5065037;28;20050;-81
2022/05/09 02:44:03;;;;;;;6.75;4.18;;;18.10;96.70;;;;;;5066813;28;20049;-81
2022/05/09 02:46:31;;;;;;;6.95;4.50;;;18.10;96.70;;;;;;5047790;28;20140;-82
2022/05/09 02:49:02;;;;;;;8.18;4.72;;;18.00;96.70;;;;;;5063495;28;20045;-82
2022/05/09 02:51:30;;;;;;;4.22;3.83;;;18.00;96.70;;;;;;5064890;28;20540;-81
2022/05/09 02:53:58;;;;;;;6.60;4.13;;;18.00;96.70;;;;;;5049548;28;20052;-82
2022/05/09 02:56:27;;;;;;;6.35;4.07;;;18.00;96.70;;;;;;5055011;28;20045;-82
2022/05/09 02:58:55;;;;;;;5.18;4.00;;;18.10;96.70;;;;;;5061886;28;20065;-80
2022/05/09 03:01:25;;;;;;;4.40;4.00;;;18.10;96.70;;;;;;5058026;28;20055;-81
2022/05/09 03:06:41;;;;;;;5.30;4.35;;;18.20;96.70;;;;;;5067101;28;20045;-81
2022/05/09 03:09:10;;;;;;;4.63;3.97;;;18.30;96.70;;;;;;5049774;28;20453;-81
2022/05/09 03:11:39;;;;;;;5.25;4.10;;;18.40;96.70;;;;;;5062133;28;20036;-81
2022/05/09 03:14:08;;;;;;;7.03;4.18;;;18.30;96.70;;;;;;5052954;28;20095;-81
2022/05/09 03:16:37;;;;;;;6.03;4.28;;;18.20;96.70;;;;;;5053263;28;20052;-80
2022/05/09 03:19:05;;;;;;;6.15;4.20;;;18.00;96.70;;;;;;5061913;28;20048;-82
2022/05/09 03:21:33;;;;;;;6.82;4.10;;;17.80;96.70;;;;;;5066371;28;20060;-82
2022/05/09 03:24:01;;;;;;;6.00;4.13;;;17.80;96.70;;;;;;5063915;28;20048;-82
2022/05/09 03:26:29;;;;;;;6.45;5.18;;;17.80;96.70;;;;;;5070510;28;20040;-81
2022/05/09 03:28:58;;;;;;;5.28;4.10;;;17.80;96.70;;;;;;5051567;28;20115;-82
2022/05/09 03:31:26;;;;;;;6.95;4.53;;;17.80;96.70;;;;;;5068806;28;21048;-81
2022/05/09 03:33:57;;;;;;;6.13;4.28;;;17.80;96.70;;;;;;5049339;28;20045;-81
2022/05/09 03:36:25;;;;;;;6.97;4.55;;;17.90;96.70;;;;;;5064403;28;20048;-81
2022/05/09 03:38:53;;;;;;;7.05;4.45;;;17.90;96.70;;;;;;5057480;28;20048;-81
2022/05/09 03:41:21;;;;;;;5.68;4.60;;;17.90;96.70;;;;;;5060505;28;20079;-81
2022/05/09 03:43:49;;;;;;;4.78;4.25;;;17.90;96.70;;;;;;5038995;28;20045;-81
2022/05/09 03:46:17;;;;;;;6.20;4.25;;;17.90;96.70;;;;;;5042281;28;20063;-80
2022/05/09 03:48:46;;;;;;;5.82;4.70;;;18.00;96.70;;;;;;5063278;28;20032;-81
2022/05/09 03:51:15;;;;;;;5.90;5.20;;;18.10;96.70;;;;;;5050149;28;20051;-81
2022/05/09 03:53:44;;;;;;;6.70;4.82;;;18.10;96.70;;;;;;5050356;28;20040;-81
2022/05/09 03:56:12;;;;;;;5.38;4.50;;;18.10;96.70;;;;;;5060876;28;20041;-81
2022/05/09 03:58:41;;;;;;;6.10;4.45;;;18.10;96.70;;;;;;5064606;28;20414;-81
2022/05/09 04:01:11;;;;;;;6.00;4.70;;;18.20;96.70;;;;;;5052160;28;20054;-81
2022/05/09 04:03:39;;;;;;;5.35;4.50;;;18.20;96.70;;;;;;5066903;28;20059;-81
2022/05/09 04:06:08;;;;;;;5.90;4.95;;;18.20;96.70;;;;;;5052940;28;20426;-81
2022/05/09 04:08:38;;;;;;;5.18;4.63;;;18.20;96.70;;;;;;5061319;28;20390;-81
2022/05/09 04:11:06;;;;;;;6.68;4.93;;;18.20;96.70;;;;;;5068896;28;20037;-81
2022/05/09 04:13:34;;;;;;;6.38;4.68;;;18.20;96.70;;;;;;5068945;28;20039;-81
2022/05/09 04:18:48;;;;;;;6.18;5.15;;;18.20;96.70;;;;;;5061739;28;20041;-81
2022/05/09 04:21:16;;;;;;;6.47;5.15;;;18.10;96.70;;;;;;5066226;28;20072;-81
2022/05/09 04:23:46;;;;;;;6.28;4.82;;;18.00;96.70;;;;;;5064227;28;20603;-81
2022/05/09 04:26:16;;;;;;;6.45;4.85;;;17.90;96.70;;;;;;5061317;28;20536;-82
2022/05/09 04:28:47;;;;;;;12.00;5.15;;;17.90;96.70;;;;;;5065727;28;20045;-82
2022/05/09 04:31:15;;;;;;;6.80;4.93;;;17.90;96.70;;;;;;5064927;28;20094;-86
2022/05/09 04:33:47;;;;;;;5.18;4.68;;;17.90;96.70;;;;;;5044978;28;20517;-80
2022/05/09 04:36:17;;;;;;;5.72;4.75;;;18.00;96.70;;;;;;5056654;28;20354;-80
2022/05/09 04:38:49;;;;;;;5.50;4.40;;;18.00;96.70;;;;;;5057584;28;20048;-81
2022/05/09 04:41:19;;;;;;;8.82;4.53;;;18.00;96.70;;;;;;5055555;28;20597;-81
2022/05/09 04:43:48;;;;;;;7.50;4.68;;;18.00;96.70;;;;;;5047810;28;20585;-80
2022/05/09 04:46:16;;;;;;;6.25;4.70;;;18.10;96.70;;;;;;5042425;28;20075;-81
2022/05/09 04:48:44;;;;;;;10.52;4.70;;;18.10;96.70;;;;;;5060613;28;20071;-81
2022/05/09 04:51:13;;;;;;;5.50;4.63;;;18.10;96.70;;;;;;5045237;28;20045;-80
2022/05/09 04:53:42;;;;;;;7.68;4.80;;;18.10;96.70;;;;;;5053489;28;20049;-80
2022/05/09 04:56:11;;;;;;;5.88;4.97;;;18.10;96.70;;;;;;5061026;28;20040;-81
2022/05/09 04:58:46;;;;;;;6.50;4.88;;;18.20;96.70;;;;;;5061432;28;20114;-81
2022/05/09 05:01:14;;;;;;;8.93;5.30;;;18.20;96.70;;;;;;5046400;28;20076;-80
2022/05/09 05:03:42;;;;;;;7.70;5.50;;;18.10;96.70;;;;;;5067892;28;20059;-81
2022/05/09 05:06:10;;;;;;;6.60;5.60;;;18.10;96.70;;;;;;5046771;28;20063;-80
2022/05/09 05:08:38;;;;;;;6.55;5.35;;;18.10;96.70;;;;;;5043737;28;20087;-80
2022/05/09 05:11:06;;;;;;;7.53;5.53;;;18.20;96.70;;;;;;5058561;28;20047;-80
2022/05/09 05:13:36;;;;;;;8.82;5.38;;;18.20;96.70;;;;;;5066251;28;20051;-80
2022/05/09 05:16:04;;;;;;;10.88;5.43;;;18.20;96.70;;;;;;5058904;28;20516;-80
2022/05/09 05:18:34;;;;;;;7.85;5.47;;;18.20;96.70;;;;;;5066253;28;20052;-80
2022/05/09 05:21:09;;;;;;;6.75;5.22;;;18.20;96.70;;;;;;5048566;28;20057;-81
2022/05/09 05:23:38;;;;;;;6.30;4.40;;;18.30;96.70;;;;;;5048698;28;20520;-81
2022/05/09 05:26:07;;;;;;;6.15;4.45;;;18.40;96.70;;;;;;5064039;28;20067;-81
2022/05/09 05:28:36;;;;;;;5.68;4.57;;;18.40;96.70;;;;;;5065285;28;20040;-80
2022/05/09 05:31:12;;;;;;;6.00;4.53;;;18.50;96.70;;;;;;5062126;28;20831;-80
2022/05/09 05:33:40;;;;;;;5.07;4.30;;;18.60;96.70;;;;;;5054797;28;20045;-79
2022/05/09 05:36:08;;;;;;;6.10;4.47;;;18.70;96.70;;;;;;5042155;28;21032;-81
2022/05/09 05:38:39;;;;;;;5.30;4.40;;;18.70;96.70;;;;;;5054923;28;20040;-79
2022/05/09 05:41:07;;;;;;;5.28;4.50;;;18.80;96.70;;;;;;5064325;28;20070;-80
2022/05/09 05:43:36;;;;;;;7.32;5.03;;;18.80;96.70;;;;;;5047413;28;20066;-80
2022/05/09 05:46:05;;;;;;;8.07;4.43;;;18.80;96.70;;;;;;5059730;28;20052;-80
2022/05/09 05:48:33;;;;;;;8.18;4.65;;;18.90;96.70;;;;;;5057655;28;20540;-81
2022/05/09 05:51:01;;;;;;;6.40;4.60;;;19.00;96.70;;;;;;5046918;28;20048;-81
2022/05/09 05:53:30;;;;;;;6.85;4.88;;;19.20;96.70;;;;;;5064127;28;20385;-80
2022/05/09 05:55:58;;;;;;;7.63;4.75;;;19.20;96.70;;;;;;5065419;28;20111;-80
2022/05/09 05:58:28;;;;;;;8.18;4.60;;;19.20;96.70;;;;;;5057321;28;20135;-81
2022/05/09 06:00:58;;;;;;;10.73;5.47;;;19.20;96.70;;;;;;5053476;28;20044;-80
2022/05/09 06:03:26;;;;;;;6.88;4.97;;;19.20;96.70;;;;;;5059713;28;20041;-80
2022/05/09 06:05:54;;;;;;;8.57;5.45;;;19.10;96.70;;;;;;5053198;28;20068;-80
2022/05/09 06:08:22;;;;;;;8.02;4.93;;;19.10;96.70;;;;;;5062054;28;20050;-81
2022/05/09 06:10:50;;;;;;;8.13;4.65;;;19.20;96.70;;;;;;5064299;28;20374;-80
2022/05/09 06:13:19;;;;;;;7.93;4.75;;;19.30;96.70;;;;;;5051353;28;20037;-81
2022/05/09 06:15:48;;;;;;;5.72;4.60;;;19.40;96.70;;;;;;5061522;28;20072;-81
2022/05/09 06:18:19;;;;;;;6.82;5.35;;;19.40;96.70;;;;;;5042418;28;20091;-81
2022/05/09 06:20:48;;;;;;;7.13;5.65;;;19.40;96.70;;;;;;5061645;28;20046;-80
2022/05/09 06:23:17;;;;;;;7.60;5.20;;;19.30;96.70;;;;;;5054847;28;20045;-81
2022/05/09 06:25:47;;;;;;;7.03;5.15;;;19.40;96.70;;;;;;5062892;28;20436;-80
2022/05/09 06:28:16;;;;;;;10.30;6.35;;;19.50;96.70;;;;;;5055351;28;20532;-80
2022/05/09 06:30:45;;;;;;;10.68;6.40;;;19.50;96.70;;;;;;5065461;28;20070;-80
2022/05/09 06:33:22;;;;;;;12.13;5.88;;;19.50;96.70;;;;;;5043012;28;20495;-80
2022/05/09 06:35:53;;;;;;;10.70;5.72;;;19.50;96.70;;;;;;5064626;28;20048;-81
2022/05/09 06:38:22;;;;;;;7.75;5.00;;;19.70;96.70;;;;;;5049338;28;20048;-80
2022/05/09 06:40:53;;;;;;;8.65;5.40;;;19.80;96.70;;;;;;5033984;28;20053;-81
2022/05/09 06:43:24;;;;;;;7.10;5.38;;;19.80;96.70;;;;;;5063343;28;20044;-84
2022/05/09 06:45:53;;;;;;;6.43;4.47;;;20.00;96.70;;;;;;5057173;28;20422;-85
2022/05/09 06:48:23;;;;;;;8.15;5.30;;;20.00;96.70;;;;;;5049003;28;20328;-83
2022/05/09 06:50:51;;;;;;;7.35;5.90;;;20.10;96.70;;;;;;5055380;28;20048;-82
2022/05/09 06:53:19;;;;;;;9.00;4.72;;;20.20;96.70;;;;;;5046856;28;20127;-83
2022/05/09 06:55:49;;;;;;;8.10;5.38;;;20.20;96.70;;;;;;5061180;28;20121;-82
2022/05/09 06:58:24;;;;;;;9.10;5.60;;;20.30;96.70;;;;;;5056196;28;20051;-82
2022/05/09 07:00:53;;;;;;;6.90;4.88;;;20.30;96.70;;;;;;5064168;28;20126;-81
2022/05/09 07:03:23;;;;;;;6.80;5.32;;;20.40;96.70;;;;;;5059368;28;20041;-82
2022/05/09 07:05:51;;;;;;;11.65;5.68;;;20.40;96.70;;;;;;5062610;28;20045;-82
2022/05/09 07:08:22;;;;;;;10.85;6.95;;;20.50;96.70;;;;;;5060714;28;20080;-82
2022/05/09 07:10:51;;;;;;;11.27;6.63;;;20.60;96.70;;;;;;5065869;28;20422;-83
2022/05/09 07:13:40;;;;;;;12.65;7.45;;;20.60;96.70;;;;;;5069565;28;20445;-82
2022/05/09 07:16:08;;;;;;;12.63;6.18;;;20.60;96.70;;;;;;5057879;28;20095;-82
2022/05/09 07:18:39;;;;;;;10.32;6.28;;;20.60;96.70;;;;;;5064175;28;20055;-82
2022/05/09 07:21:08;;;;;;;11.50;6.40;;;20.70;96.70;;;;;;5059088;28;20057;-82
2022/05/09 07:23:37;;;;;;;13.55;6.57;;;20.70;96.70;;;;;;5063339;28;20048;-81
2022/05/09 07:26:06;;;;;;;9.43;6.10;;;20.80;96.70;;;;;;5042174;28;20133;-81
2022/05/09 07:28:34;;;;;;;12.05;5.28;;;20.90;96.70;;;;;;5050863;28;20488;-80
2022/05/09 07:31:03;;;;;;;9.07;5.63;;;20.90;96.70;;;;;;5062445;28;20045;-80
2022/05/09 07:33:31;;;;;;;7.13;4.80;;;21.00;96.70;;;;;;5059398;28;20124;-79
2022/05/09 07:36:00;;;;;;;6.70;4.97;;;20.90;96.70;;;;;;5055323;28;20602;-77
2022/05/09 07:38:29;;;;;;;8.05;4.75;;;21.00;96.70;;;;;;5050842;28;20051;-78
2022/05/09 07:40:57;;;;;;;7.25;4.85;;;21.20;96.70;;;;;;5059052;28;20049;-78
2022/05/09 07:43:28;;;;;;;9.55;5.50;;;21.40;96.70;;;;;;5050824;28;20044;-78
2022/05/09 07:45:56;;;;;;;7.88;4.72;;;21.50;96.70;;;;;;5059073;28;20056;-78
2022/05/09 07:48:27;;;;;;;12.65;5.00;;;21.60;96.70;;;;;;5057496;28;20045;-79
2022/05/09 07:50:57;;;;;;;6.32;5.13;;;21.70;96.70;;;;;;5054938;28;20056;-79
2022/05/09 07:53:29;;;;;;;7.25;5.20;;;21.70;96.70;;;;;;5055581;28;20124;-79
2022/05/09 07:56:00;;;;;;;6.70;5.20;;;21.90;96.70;;;;;;5053154;28;20135;-78
2022/05/09 07:58:28;;;;;;;7.15;5.03;;;21.90;96.70;;;;;;5056176;28;20032;-80
2022/05/09 08:00:58;;;;;;;5.57;4.60;;;22.00;96.70;;;;;;5048884;28;20076;-81
2022/05/09 08:03:32;;;;;;;5.82;4.50;;;22.00;96.70;;;;;;5057989;28;20044;-82
2022/05/09 08:06:02;;;;;;;5.72;4.70;;;22.10;96.70;;;;;;5061934;28;20513;-80
2022/05/09 08:08:35;;;;;;;7.00;4.60;;;22.10;96.70;;;;;;5052392;28;20041;-80
2022/05/09 08:11:11;;;;;;;8.27;4.82;;;22.20;96.70;;;;;;5061144;28;20049;-79
2022/05/09 08:13:42;;;;;;;5.93;4.72;;;22.30;96.70;;;;;;5056121;28;20169;-79
2022/05/09 08:16:11;;;;;;;7.32;5.10;;;22.30;96.70;;;;;;5062361;28;20109;-80
2022/05/09 08:18:40;;;;;;;8.25;5.22;;;22.40;96.70;;;;;;5056648;28;20045;-79
2022/05/09 08:21:09;;;;;;;6.55;4.60;;;22.40;96.70;;;;;;5050687;28;20045;-79
2022/05/09 08:23:46;;;;;;;7.53;4.63;;;22.50;96.70;;;;;;5054804;28;20134;-79
2022/05/09 08:26:15;;;;;;;6.03;4.60;;;22.60;96.70;;;;;;5057227;28;20044;-79
2022/05/09 08:28:44;;;;;;;6.50;4.75;;;22.60;96.70;;;;;;5059700;28;20078;-78
2022/05/09 08:31:16;;;;;;;9.00;4.78;;;22.60;96.70;;;;;;5053534;28;20120;-78
2022/05/09 08:33:46;;;;;;;6.28;4.35;;;22.60;96.70;;;;;;5058875;28;20045;-78
2022/05/09 08:36:45;;;;;;;6.43;4.28;;;22.50;96.70;;;;;;5059435;28;20048;-78
2022/05/09 08:39:04;;;;;;;9.30;4.80;;;22.60;96.70;;;;;;5055331;28;20045;-80
2022/05/09 08:41:41;;;;;;;5.88;4.40;;;22.60;96.70;;;;;;5050539;28;20055;-78
2022/05/09 08:44:20;;;;;;;6.00;4.82;;;22.70;96.70;;;;;;5042344;28;20075;-78
2022/05/09 08:47:04;;;;;;;6.18;4.43;;;22.90;96.70;;;;;;5052875;28;20554;-78
2022/05/09 08:49:45;;;;;;;8.07;5.15;;;23.00;96.70;;;;;;5060968;28;20045;-78
2022/05/09 08:52:21;;;;;;;9.30;4.93;;;23.20;96.70;;;;;;5050959;28;20045;-79
2022/05/09 08:54:52;;;;;;;8.93;4.78;;;23.20;96.70;;;;;;5052241;28;20600;-80
2022/05/09 08:57:23;;;;;;;6.55;4.72;;;23.30;96.70;;;;;;5051862;28;20558;-77
2022/05/09 08:59:58;;;;;;;8.77;5.07;;;23.30;96.70;;;;;;5051369;28;20051;-77
2022/05/09 09:02:33;;;;;;;5.57;4.60;;;23.40;96.70;;;;;;5052785;28;20715;-78
2022/05/09 09:05:03;;;;;;;5.73;4.60;;;23.40;96.70;;;;;;5053797;28;20047;-78
2022/05/09 09:07:52;;;;;;;7.53;5.25;;;23.50;96.70;;;;;;5058397;28;20345;-78
2022/05/09 09:10:29;;;;;;;5.60;4.10;;;23.60;96.70;;;;;;5050738;28;20044;-78
2022/05/09 09:13:03;;;;;;;;;;;23.60;96.70;;;;;;5052267;28;20052;-79
2022/05/09 09:15:41;;;;;;;6.43;4.75;;;23.60;96.70;;;;;;5039580;28;20020;-78
2022/05/09 09:18:37;;;;;;;5.28;4.40;;;23.60;96.70;;;;;;5051772;28;20529;-78
2022/05/09 09:21:11;;;;;;;5.60;4.65;;;23.50;96.70;;;;;;5056482;28;20619;-78
2022/05/09 09:24:02;;;;;;;6.03;4.45;;;23.30;96.70;;;;;;5041070;28;20045;-78
2022/05/09 09:26:38;;;;;;;6.10;4.70;;;23.20;96.70;;;;;;5052844;28;20064;-79
2022/05/09 09:29:13;;;;;;;6.90;5.30;;;23.10;96.70;;;;;;5049878;28;20048;-80
2022/05/09 09:31:45;;;;;;;8.65;5.00;;;23.10;96.70;;;;;;5035524;28;20045;-78
2022/05/09 09:34:26;;;;;;;6.30;5.38;;;23.00;96.70;;;;;;5055464;28;20044;-80
2022/05/09 09:37:00;;;;;;;10.13;7.38;;;23.00;96.70;;;;;;5059225;28;20048;-82
2022/05/09 09:39:36;;;;;;;8.38;6.10;;;22.90;96.70;;;;;;5064574;28;20426;-81
2022/05/09 09:42:07;;;;;;;9.68;6.10;;;22.70;96.70;;;;;;5058949;28;20052;-78
2022/05/09 09:44:40;;;;;;;10.40;6.40;;;22.60;96.70;;;;;;5050681;28;20072;-78
2022/05/09 09:47:12;;;;;;;9.77;6.45;;;22.40;96.70;;;;;;5044884;28;20041;-80
2022/05/09 09:50:18;;;;;;;5.30;4.75;;;22.40;96.70;;;;;;5054827;28;20147;-80
2022/05/09 09:52:50;;;;;;;7.95;5.40;;;22.30;96.70;;;;;;5062253;28;20174;-77
2022/05/09 09:55:25;;;;;;;6.75;4.80;;;22.30;96.70;;;;;;5045922;28;20494;-78
2022/05/09 09:57:57;;;;;;;6.05;4.82;;;22.30;96.70;;;;;;5047543;28;20041;-78
2022/05/09 10:00:30;;;;;;;8.52;5.25;;;22.20;96.70;;;;;;5053172;28;20076;-77
2022/05/09 10:03:17;;;;;;;8.88;5.13;;;22.20;96.70;;;;;;5059501;28;20067;-79
2022/05/09 10:05:47;;;;;;;6.38;5.07;;;22.20;96.70;;;;;;5058468;28;20076;-79
2022/05/09 10:08:21;;;;;;;8.20;4.85;;;22.20;96.70;;;;;;5045496;28;20182;-79
2022/05/09 10:10:56;;;;;;;5.63;4.35;;;22.20;96.70;;;;;;5059312;28;20094;-79
2022/05/09 10:13:34;;;;;;;6.78;4.55;;;22.20;96.70;;;;;;5057071;28;20114;-81
2022/05/09 10:16:05;;;;;;;6.07;4.20;;;22.20;96.70;;;;;;5055171;28;20075;-79
2022/05/09 10:18:34;;;;;;;6.25;4.85;;;22.20;96.70;;;;;;5053553;28;20131;-79
2022/05/09 10:24:47;;;;;;;6.60;4.68;;;22.30;96.70;;;;;;5053843;28;20049;-79
2022/05/09 10:27:06;;;;;;;7.72;5.00;;;22.30;96.70;;;;;;5061804;28;20071;-80
2022/05/09 10:29:40;;;;;;;11.25;6.22;;;22.30;96.70;;;;;;5051488;28;20056;-79
2022/05/09 10:32:12;;;;;;;8.15;4.90;;;22.30;96.70;;;;;;5043883;28;20577;-79
2022/05/09 10:34:46;;;;;;;7.07;5.28;;;22.30;96.70;;;;;;5061766;28;20047;-79
2022/05/09 10:37:23;;;;;;;9.23;6.05;;;22.20;96.70;;;;;;5056975;28;20048;-79
2022/05/09 10:39:54;;;;;;;;;;;22.20;96.70;;;;;;5058759;28;20045;-79
2022/05/09 10:42:34;;;;;;;6.88;4.78;;;22.10;96.70;;;;;;5031680;28;19932;-79
2022/05/09 10:45:10;;;;;;;9.40;5.95;;;22.10;96.70;;;;;;5054590;28;20099;-79
2022/05/09 10:47:44;;;;;;;9.00;5.85;;;22.10;96.70;;;;;;5053502;28;20040;-79
2022/05/09 10:50:19;;;;;;;11.40;6.05;;;22.00;96.70;;;;;;5061905;28;20119;-79
2022/05/09 10:53:03;;;;;;;8.05;5.38;;;22.10;96.70;;;;;;5059684;28;20050;-80
2022/05/09 10:55:36;;;;;;;10.27;5.40;;;22.20;96.70;;;;;;5040204;28;20153;-79
2022/05/09 10:58:10;;;;;;;7.75;4.82;;;22.20;96.70;;;;;;5048187;28;20056;-79
2022/05/09 11:00:47;;;;;;;7.80;3.97;;;22.20;96.70;;;;;;5057667;28;20051;-79
2022/05/09 11:03:26;;;;;;;6.35;4.55;;;22.20;96.70;;;;;;5057672;28;20135;-79
2022/05/09 11:06:18;;;;;;;6.35;4.20;;;22.30;96.70;;;;;;5054528;28;20036;-80
2022/05/09 11:09:15;;;;;;;7.70;4.85;;;22.40;96.70;;;;;;5047556;28;20070;-79
2022/05/09 11:11:53;;;;;;;;;;;22.40;96.70;;;;;;5033917;28;20048;-79
2022/05/09 11:14:33;;;;;;;8.15;4.07;;;22.40;96.70;;;;;;5051786;28;19925;-80
2022/05/09 11:17:15;;;;;;;4.80;4.10;;;22.40;96.70;;;;;;5050387;28;20128;-79
2022/05/09 11:19:56;;;;;;;5.95;4.50;;;22.50;96.70;;;;;;5054299;28;20044;-79
2022/05/09 11:22:31;;;;;;;6.72;4.30;;;22.50;96.70;;;;;;5046004;28;20052;-78
2022/05/09 11:25:15;;;;;;;6.75;4.65;;;22.60;96.70;;;;;;5040340;28;20072;-79
2022/05/09 11:27:56;;;;;;;6.65;5.22;;;22.70;96.70;;;;;;5038680;28;20069;-79
2022/05/09 11:30:33;;;;;;;7.97;4.95;;;22.80;96.70;;;;;;5054964;28;20628;-79
2022/05/09 11:33:23;;;;;;;6.25;4.95;;;22.90;96.70;;;;;;5062035;28;20036;-79
2022/05/09 11:35:57;;;;;;;8.55;5.60;;;23.00;96.70;;;;;;5039390;28;20106;-79
2022/05/09 11:38:56;;;;;;;7.55;5.25;;;23.10;96.70;;;;;;5067071;28;20066;-80
2022/05/09 11:41:35;;;;;;;7.45;5.25;;;23.30;96.70;;;;;;5046433;28;20151;-79
2022/05/09 11:44:13;;;;;;;6.05;5.20;;;23.40;96.70;;;;;;5063264;28;20056;-79
2022/05/09 11:47:06;;;;;;;9.18;5.05;;;23.60;96.70;;;;;;5056736;28;20045;-80
2022/05/09 11:50:13;;;;;;;6.40;4.55;;;23.80;96.70;;;;;;5044682;28;20044;-80
2022/05/09 11:52:43;;;;;;;11.18;5.13;;;24.30;96.70;;;;;;5055587;28;20170;-80
2022/05/09 11:55:17;;;;;;;8.65;4.88;;;24.90;96.70;;;;;;5059189;28;20132;-80
2022/05/09 11:57:50;;;;;;;6.20;4.93;;;25.30;96.70;;;;;;5055305;28;20049;-80
2022/05/09 12:00:50;;;;;;;7.53;5.25;;;25.60;96.70;;;;;;5054477;28;20049;-80
2022/05/09 12:04:00;;;;;;;8.88;5.18;;;25.40;96.70;;;;;;5057524;28;20421;-80
2022/05/09 12:06:35;;;;;;;14.15;8.00;;;25.60;96.70;;;;;;5054893;28;20080;-80
2022/05/09 12:09:09;;;;;;;18.10;10.00;;;25.80;96.70;;;;;;5059664;28;20052;-79
2022/05/09 12:11:55;;;;;;;10.23;5.70;;;25.90;96.70;;;;;;5060954;28;20148;-80
2022/05/09 12:14:50;;;;;;;8.40;4.63;;;25.90;96.70;;;;;;5053723;28;20048;-79
2022/05/09 12:17:35;;;;;;;7.32;4.72;;;25.80;96.70;;;;;;5033515;28;20052;-80
2022/05/09 12:20:10;;;;;;;9.60;4.85;;;25.80;96.70;;;;;;5058359;28;20083;-79
2022/05/09 12:22:44;;;;;;;7.45;4.60;;;25.80;96.70;;;;;;5055130;28;20075;-81
2022/05/09 12:25:52;;;;;;;5.72;4.43;;;25.80;96.70;;;;;;5059356;28;20522;-80
2022/05/09 12:28:21;;;;;;;;;;;25.40;96.70;;;;;;5047908;28;20051;-82
2022/05/09 12:30:54;;;;;;;6.18;4.70;;;25.30;96.70;;;;;;5053096;28;20022;-80
2022/05/09 12:33:35;;;;;;;8.27;4.55;;;25.60;96.70;;;;;;5064664;28;20075;-81
2022/05/09 12:36:09;;;;;;;7.75;4.38;;;25.70;96.70;;;;;;5057965;28;20691;-81
2022/05/09 12:38:41;;;;;;;5.40;4.45;;;25.60;96.70;;;;;;5062833;28;20044;-80
2022/05/09 12:41:12;;;;;;;12.52;5.10;;;25.80;96.70;;;;;;5040197;28;20049;-84
2022/05/09 12:43:45;;;;;;;5.25;3.95;;;25.90;96.70;;;;;;5062506;28;20079;-77
2022/05/09 12:46:27;;;;;;;5.47;4.35;;;25.90;96.70;;;;;;5045888;28;20399;-77
2022/05/09 12:48:58;;;;;;;5.40;3.90;;;26.10;96.70;;;;;;5059461;28;20037;-79
2022/05/09 12:51:28;;;;;;;6.72;4.05;;;26.20;96.70;;;;;;5050705;28;20627;-78
2022/05/09 12:53:59;;;;;;;7.30;4.45;;;26.10;96.70;;;;;;5058347;28;20040;-78
2022/05/09 12:56:28;;;;;;;6.57;3.90;;;26.00;96.70;;;;;;5058657;28;20067;-78
2022/05/09 12:59:03;;;;;;;8.70;4.10;;;26.00;96.70;;;;;;5052852;28;20036;-77
2022/05/09 13:01:32;;;;;;;10.30;4.15;;;26.00;96.70;;;;;;5053005;28;20051;-80
2022/05/09 13:04:24;;;;;;;7.93;4.35;;;25.90;96.70;;;;;;5047464;28;20047;-77
2022/05/09 13:06:55;;;;;;;10.05;4.72;;;26.10;96.70;;;;;;5053872;28;20055;-76
2022/05/09 13:09:27;;;;;;;6.07;4.15;;;26.20;96.70;;;;;;5052795;28;20064;-78
2022/05/09 13:12:01;;;;;;;7.28;4.25;;;26.40;96.70;;;;;;5050961;28;20429;-76
2022/05/09 13:14:36;;;;;;;9.98;4.20;;;26.60;96.70;;;;;;5041929;28;20049;-80
2022/05/09 13:17:14;;;;;;;10.93;4.47;;;26.70;96.70;;;;;;5056093;28;20044;-81
2022/05/09 13:19:46;;;;;;;7.65;4.00;;;26.90;96.70;;;;;;5048029;28;20048;-80
2022/05/09 13:22:20;;;;;;;8.65;4.25;;;27.10;96.60;;;;;;5039478;28;20053;-78
2022/05/09 13:24:55;;;;;;;6.30;3.70;;;27.10;96.70;;;;;;5038108;28;20453;-80
2022/05/09 13:27:24;;;;;;;6.55;4.00;;;26.90;95.70;;;;;;5060491;28;20044;-82